Aktualne dane pomiarowe

Uwaga, wersja testowa! Automatyczne pobieranie danych za pomocą narzędzi lub skryptów to umożliwiających jest zabronione.

Dane meteo z obszaru Polski uzyskane na podstawie depesz SYNOP pobieranych co godzinę z NWS. Najedź myszką na symbol przedstawiony w tabeli, aby uzyskać informacje co do jego znaczenia. Prosimy pamiętać, że to testowa wersja strony, która jeszcze nie jest ukończona. Stworzono również jest krótki FAQ dotyczący korzystania z tej podstrony Anomalie temperatury w chwili obecnej odniesione są do okresu referencyjnego 1951-2016. Okres ten będzie później zmieniony na 1981-2010. Kliknij ikonę aby pobrać plik CSV. Kliknij ikonę aby wygenerować mapę synoptyczną dla danego terminu.

Wybierz Datę:    

        

Mirosławiec (12226)

Dane terminowe dla wybranej stacji. Kliknij datę, aby otrzymać dane z tego terminu dla wszystkich stacji.

TemperaturaZachmurzenieWiatrCiśnienieOpadyPogoda
 Data t td wb tx tn tg rh  Nt Nl Cl Cm Ch ws wd g1 g2 wx mslp ppp ch 24h 12h t ww ww w1 w2  
2019-07-02 23:00:00 13.1 3.8 8.1--- 5310.0wxwxwx5wx---1018.61000.4 0.1---------
2019-07-02 22:00:00 13.6 4.5 8.6--- 5410.0wx-wx4wx---1018.61000.5 0.5---------
2019-07-02 21:00:00 14.2 4.8 9.1--- 5310.0wxwxwxwx6wx---1018.61000.5 0.5---------
2019-07-02 20:00:00 14.2 5.8 9.5--- 5710.0wx-wx5wx---1018.41000.3 0.4---------
2019-07-02 19:00:00 15.0 6.3 10.1--- 5610.0wx-wx5wx---1018.01000.0 0.3---------
2019-07-02 18:00:00 15.9 6.6 10.6--- 5410.0wxwxwx6wx---1018.01000.0 0.4---------
2019-07-02 17:00:00 16.3 7.0 11.0--- 5410.0wxwxwx7wx---1017.8 999.9 0.4---------
2019-07-02 16:00:00 16.9 7.3 11.4--- 5310.0wxwxwx6wx---1017.6 999.7 0.5---------
2019-07-02 15:00:00 17.4 7.2 11.6--- 5110.0wxwxwx8wx---1017.5 999.6 0.4---------
2019-07-02 14:00:00 17.5 6.7 11.4--- 4910.0wxwxwx6wx---1017.3 999.5 0.8---------
2019-07-02 13:00:00 17.5 7.6 11.8--- 5210.0wxwxwx6wx---1017.0 999.2 0.8---------
2019-07-02 12:00:00 16.8 8.0 11.7--- 5610.0wxwxwx6wx---1017.1 999.2 1.4---------
2019-07-02 11:00:00 17.4 8.3 12.1--- 5510.0wxwxwx8wx---1016.5 998.7 1.1---------
2019-07-02 10:00:00 17.2 7.6 11.7--- 5310.0wxwxwx6wx---1016.2 998.4 1.0---------
2019-07-02 09:00:00 18.0 7.5 12.0--- 5010.0wxwxwx9wx15--1015.6 997.8 0.7---------
2019-07-02 08:00:00 16.8 9.3 12.3--- 6110.0wxwxwx6wx---1015.4 997.6 0.7---------
2019-07-02 07:00:00 15.5 10.3 12.2--- 7110.0wxwxwx6wx---1015.3 997.4 0.5---------
2019-07-02 06:00:00 16.0 9.9 12.2--- 6710.0wxwxwx7wx---1015.0 997.1 0.3---------
2019-07-02 05:00:00 15.2 10.0 11.9--- 7110.0wx-4wx---1014.8 996.9 0.4---------
2019-07-02 04:00:00 13.6 8.9 10.7--- 7310.0wx-4wx---1014.9 996.9 0.4---------
2019-07-02 03:00:00 12.9 8.2 10.0--- 7310.0wx-3wx---1014.9 996.8 0.1---------
2019-07-02 02:00:00 13.8 7.8 10.2--- 6710.0wx-3wx---1014.5 996.5 -0.1---------
2019-07-02 01:00:00 14.2 8.0 10.5--- 6655.0wx-wx4wx---1014.5 996.5 0.2---------
2019-07-02 00:00:00 15.3 9.4 11.7--- 6810.0wx-wx4wx---1014.6 996.7 0.6---------
2019-07-01 23:00:00 15.5 11.3 12.8--- 7610.0wx-wx3wx---1014.5 996.6 1.2---------
2019-07-01 22:00:00 15.5 11.1 12.7--- 7510.0wx-wx3wx---1014.2 996.3 1.5---------
2019-07-01 21:00:00 16.9 11.2 13.3--- 6910.0wx-wx2wx---1013.9 996.1 2.4---------
2019-07-01 20:00:00 18.6 12.4 14.6--- 6710.0wx-wx5wx---1013.1 995.4 1.8---------
2019-07-01 19:00:00 19.9 11.9 14.9--- 6010.0wxwxwxwx5wx---1012.4 994.8 1.3---------
2019-07-01 18:00:00 24.0 8.5 15.1--- 3710.0wxwxwx4wx---1011.0 993.7 -0.2---------
2019-07-01 17:00:00 25.2 7.8 15.3--- 3310.0wxwxwx6wx---1010.9 993.6 -1.1---------
2019-07-01 16:00:00 24.8 7.5 15.0--- 3310.0wxwxwx5wx---1010.8 993.5 -1.5---------
2019-07-01 15:00:00 25.1 7.7 15.2--- 3310.0wxwxwx6wx16--1011.2 993.9 -1.2---------
2019-07-01 13:00:00 26.1 8.2 15.9--- 3210.0wxwxwx4wx-12-1012.2 995.0 -1.1---------
2019-07-01 12:00:00 25.1 9.4 16.0--- 3710.0wxwxwx6wx---1012.4 995.1 -1.0---------
2019-07-01 11:00:00 23.8 10.9 16.1--- 4410.0wxwxwxwx4wx---1012.5 995.2 -1.1---------
2019-07-01 10:00:00 22.0 10.8 15.3--- 4910.0wxwxwxwx6wx---1013.6 996.1 0.2---------
2019-07-01 09:00:00 21.1 10.6 14.8--- 5110.0wxwxwxwx6wx---1013.6 996.1 0.3---------
2019-07-01 08:00:00 20.7 11.6 15.1--- 5610.0wxwxwxwx6wx---1013.9 996.3 0.8---------
2019-07-01 07:00:00 19.2 12.9 15.2--- 6710.0wxwxwxwx4wx---1013.5 995.9 0.8---------
2019-07-01 06:00:00 18.3 12.5 14.6--- 6910.0wxwxwxwx4wx---1013.5 995.8 1.3---------
2019-07-01 05:00:00 18.0 12.7 14.6--- 7110.0wxwxwxwx3wx---1013.2 995.5 0.7---------
2019-07-01 04:00:00 17.3 12.6 14.2--- 7410.0wxwxwxwx2wx---1012.8 995.1 0.2---------
2019-07-01 03:00:00-------10.0wx-3wx---------------
2019-07-01 02:00:00 18.0 11.8 14.1--- 6710.0wx-3wx---1012.5 994.8 0.3---------
2019-07-01 01:00:00 18.0 10.9 13.6--- 6310.0wx-3wx---1012.6 994.9 0.8---------
2019-07-01 00:00:00 19.2 11.5 14.4--- 6110.0wx-5wx---1012.4 994.8 1.7---------
7.9 ms

 

Print Friendly, PDF & Email